sensor_id;sensor_type;location;lat;lon;timestamp;temperature;humidity
20732;DHT22;10527;52.124;5.196;2022-11-20T00:01:28;0.20;99.90
20732;DHT22;10527;52.124;5.196;2022-11-20T00:03:57;0.20;99.90
20732;DHT22;10527;52.124;5.196;2022-11-20T00:06:26;0.10;99.90
20732;DHT22;10527;52.124;5.196;2022-11-20T00:08:55;0.20;99.90
20732;DHT22;10527;52.124;5.196;2022-11-20T00:11:25;0.10;99.90
20732;DHT22;10527;52.124;5.196;2022-11-20T00:13:56;0.10;99.90
20732;DHT22;10527;52.124;5.196;2022-11-20T00:16:26;0.10;99.90
20732;DHT22;10527;52.124;5.196;2022-11-20T00:18:54;0.00;99.90
20732;DHT22;10527;52.124;5.196;2022-11-20T00:21:23;0.10;99.90
20732;DHT22;10527;52.124;5.196;2022-11-20T00:23:54;0.00;99.90
20732;DHT22;10527;52.124;5.196;2022-11-20T00:26:23;0.00;99.90
20732;DHT22;10527;52.124;5.196;2022-11-20T00:28:59;-0.10;99.90
20732;DHT22;10527;52.124;5.196;2022-11-20T00:31:27;0.00;99.90
20732;DHT22;10527;52.124;5.196;2022-11-20T00:33:55;0.10;99.90
20732;DHT22;10527;52.124;5.196;2022-11-20T00:36:24;0.20;99.90
20732;DHT22;10527;52.124;5.196;2022-11-20T00:39:12;0.20;99.90
20732;DHT22;10527;52.124;5.196;2022-11-20T00:41:39;0.20;99.90
20732;DHT22;10527;52.124;5.196;2022-11-20T00:44:06;0.00;99.90
20732;DHT22;10527;52.124;5.196;2022-11-20T00:46:32;-0.10;99.90
20732;DHT22;10527;52.124;5.196;2022-11-20T00:49:00;-0.20;99.90
20732;DHT22;10527;52.124;5.196;2022-11-20T00:51:27;-0.20;99.90
20732;DHT22;10527;52.124;5.196;2022-11-20T00:53:56;-0.10;99.90
20732;DHT22;10527;52.124;5.196;2022-11-20T00:56:24;-0.10;99.90
20732;DHT22;10527;52.124;5.196;2022-11-20T00:58:50;-0.10;99.90
20732;DHT22;10527;52.124;5.196;2022-11-20T01:01:23;-0.20;99.90
20732;DHT22;10527;52.124;5.196;2022-11-20T01:03:55;-0.20;99.90
20732;DHT22;10527;52.124;5.196;2022-11-20T01:06:35;-0.20;99.90
20732;DHT22;10527;52.124;5.196;2022-11-20T01:09:10;-0.20;99.90
20732;DHT22;10527;52.124;5.196;2022-11-20T01:11:43;-0.20;99.90
20732;DHT22;10527;52.124;5.196;2022-11-20T01:14:15;-0.20;99.90
20732;DHT22;10527;52.124;5.196;2022-11-20T01:16:46;-0.20;99.90
20732;DHT22;10527;52.124;5.196;2022-11-20T01:19:17;-0.20;99.90
20732;DHT22;10527;52.124;5.196;2022-11-20T01:21:48;-0.20;99.90
20732;DHT22;10527;52.124;5.196;2022-11-20T01:24:19;-0.20;99.90
20732;DHT22;10527;52.124;5.196;2022-11-20T01:26:49;-0.30;99.90
20732;DHT22;10527;52.124;5.196;2022-11-20T01:29:22;-0.50;99.90
20732;DHT22;10527;52.124;5.196;2022-11-20T01:31:51;-0.50;99.90
20732;DHT22;10527;52.124;5.196;2022-11-20T01:34:19;-0.60;99.90
20732;DHT22;10527;52.124;5.196;2022-11-20T01:36:49;-0.50;99.90
20732;DHT22;10527;52.124;5.196;2022-11-20T01:39:19;-0.50;99.90
20732;DHT22;10527;52.124;5.196;2022-11-20T01:41:53;-0.40;99.90
20732;DHT22;10527;52.124;5.196;2022-11-20T01:44:44;-0.30;99.90
20732;DHT22;10527;52.124;5.196;2022-11-20T01:47:17;-0.30;99.90
20732;DHT22;10527;52.124;5.196;2022-11-20T01:52:57;-0.50;99.90
20732;DHT22;10527;52.124;5.196;2022-11-20T01:55:34;-0.60;99.90
20732;DHT22;10527;52.124;5.196;2022-11-20T01:58:06;-0.50;99.90
20732;DHT22;10527;52.124;5.196;2022-11-20T02:00:35;-0.40;99.90
20732;DHT22;10527;52.124;5.196;2022-11-20T02:03:15;-0.40;99.90
20732;DHT22;10527;52.124;5.196;2022-11-20T02:05:55;-0.40;99.90
20732;DHT22;10527;52.124;5.196;2022-11-20T02:08:23;-0.50;99.90
20732;DHT22;10527;52.124;5.196;2022-11-20T02:10:50;-0.60;99.90
20732;DHT22;10527;52.124;5.196;2022-11-20T02:13:17;-0.70;99.90
20732;DHT22;10527;52.124;5.196;2022-11-20T02:16:03;-0.70;99.90
20732;DHT22;10527;52.124;5.196;2022-11-20T02:18:30;-0.80;99.90
20732;DHT22;10527;52.124;5.196;2022-11-20T02:21:23;-0.90;99.90
20732;DHT22;10527;52.124;5.196;2022-11-20T02:24:16;-0.80;99.90
20732;DHT22;10527;52.124;5.196;2022-11-20T02:27:19;-0.70;99.90
20732;DHT22;10527;52.124;5.196;2022-11-20T02:29:52;-0.70;99.90
20732;DHT22;10527;52.124;5.196;2022-11-20T02:32:41;-0.80;99.90
20732;DHT22;10527;52.124;5.196;2022-11-20T02:37:45;-0.80;99.90
20732;DHT22;10527;52.124;5.196;2022-11-20T02:40:17;-0.70;99.90
20732;DHT22;10527;52.124;5.196;2022-11-20T02:42:44;-0.70;99.90
20732;DHT22;10527;52.124;5.196;2022-11-20T02:45:11;-0.70;99.90
20732;DHT22;10527;52.124;5.196;2022-11-20T02:47:38;-0.70;99.90
20732;DHT22;10527;52.124;5.196;2022-11-20T02:50:05;-0.70;99.90
20732;DHT22;10527;52.124;5.196;2022-11-20T02:52:32;-0.70;99.90
20732;DHT22;10527;52.124;5.196;2022-11-20T02:54:59;-0.80;99.90
20732;DHT22;10527;52.124;5.196;2022-11-20T02:57:26;-0.70;99.90
20732;DHT22;10527;52.124;5.196;2022-11-20T02:59:54;-0.70;99.90
20732;DHT22;10527;52.124;5.196;2022-11-20T03:02:21;-0.70;99.90
20732;DHT22;10527;52.124;5.196;2022-11-20T03:04:50;-0.70;99.90
20732;DHT22;10527;52.124;5.196;2022-11-20T03:07:17;-0.80;99.90
20732;DHT22;10527;52.124;5.196;2022-11-20T03:09:45;-0.80;99.90
20732;DHT22;10527;52.124;5.196;2022-11-20T03:12:12;-0.80;99.90
20732;DHT22;10527;52.124;5.196;2022-11-20T03:14:40;-0.90;99.90
20732;DHT22;10527;52.124;5.196;2022-11-20T03:17:07;-0.90;99.90
20732;DHT22;10527;52.124;5.196;2022-11-20T03:19:34;-1.00;99.90
20732;DHT22;10527;52.124;5.196;2022-11-20T03:22:02;-1.00;99.90
20732;DHT22;10527;52.124;5.196;2022-11-20T03:24:29;-1.00;99.90
20732;DHT22;10527;52.124;5.196;2022-11-20T03:26:56;-0.90;99.90
20732;DHT22;10527;52.124;5.196;2022-11-20T03:29:23;-0.90;99.90
20732;DHT22;10527;52.124;5.196;2022-11-20T03:31:49;-0.90;99.90
20732;DHT22;10527;52.124;5.196;2022-11-20T03:34:16;-0.90;99.90
20732;DHT22;10527;52.124;5.196;2022-11-20T03:36:43;-0.90;99.90
20732;DHT22;10527;52.124;5.196;2022-11-20T03:39:10;-0.90;99.90
20732;DHT22;10527;52.124;5.196;2022-11-20T03:41:39;-0.90;99.90
20732;DHT22;10527;52.124;5.196;2022-11-20T03:44:09;-1.00;99.90
20732;DHT22;10527;52.124;5.196;2022-11-20T03:46:37;-1.10;99.90
20732;DHT22;10527;52.124;5.196;2022-11-20T03:49:05;-1.10;99.90
20732;DHT22;10527;52.124;5.196;2022-11-20T03:51:33;-1.10;99.90
20732;DHT22;10527;52.124;5.196;2022-11-20T03:54:03;-1.10;99.90
20732;DHT22;10527;52.124;5.196;2022-11-20T03:56:35;-1.20;99.90
20732;DHT22;10527;52.124;5.196;2022-11-20T03:59:04;-1.30;99.90
20732;DHT22;10527;52.124;5.196;2022-11-20T04:01:34;-1.30;99.90
20732;DHT22;10527;52.124;5.196;2022-11-20T04:04:04;-1.20;99.90
20732;DHT22;10527;52.124;5.196;2022-11-20T04:06:37;-1.20;99.90
20732;DHT22;10527;52.124;5.196;2022-11-20T04:09:05;-1.20;99.90
20732;DHT22;10527;52.124;5.196;2022-11-20T04:11:35;-1.20;99.90
20732;DHT22;10527;52.124;5.196;2022-11-20T04:14:05;-1.20;99.90
20732;DHT22;10527;52.124;5.196;2022-11-20T04:16:35;-1.20;99.90
20732;DHT22;10527;52.124;5.196;2022-11-20T04:19:04;-1.20;99.90
20732;DHT22;10527;52.124;5.196;2022-11-20T04:21:33;-1.20;99.90
20732;DHT22;10527;52.124;5.196;2022-11-20T04:24:00;-1.40;99.90
20732;DHT22;10527;52.124;5.196;2022-11-20T04:26:28;-1.50;99.90
20732;DHT22;10527;52.124;5.196;2022-11-20T04:28:57;-1.50;99.90
20732;DHT22;10527;52.124;5.196;2022-11-20T04:31:28;-1.50;99.90
20732;DHT22;10527;52.124;5.196;2022-11-20T04:33:59;-1.50;99.90
20732;DHT22;10527;52.124;5.196;2022-11-20T04:36:29;-1.50;99.90
20732;DHT22;10527;52.124;5.196;2022-11-20T04:38:59;-1.50;99.90
20732;DHT22;10527;52.124;5.196;2022-11-20T04:41:30;-1.60;99.90
20732;DHT22;10527;52.124;5.196;2022-11-20T04:44:00;-1.60;99.90
20732;DHT22;10527;52.124;5.196;2022-11-20T04:46:35;-1.50;99.90
20732;DHT22;10527;52.124;5.196;2022-11-20T04:49:04;-1.50;99.90
20732;DHT22;10527;52.124;5.196;2022-11-20T04:51:32;-1.50;99.90
20732;DHT22;10527;52.124;5.196;2022-11-20T04:53:59;-1.50;99.90
20732;DHT22;10527;52.124;5.196;2022-11-20T04:56:26;-1.50;99.90
20732;DHT22;10527;52.124;5.196;2022-11-20T04:58:53;-1.60;99.90
20732;DHT22;10527;52.124;5.196;2022-11-20T05:01:21;-1.60;99.90
20732;DHT22;10527;52.124;5.196;2022-11-20T05:03:50;-1.60;99.90
20732;DHT22;10527;52.124;5.196;2022-11-20T05:06:21;-1.70;99.90
20732;DHT22;10527;52.124;5.196;2022-11-20T05:08:48;-1.80;99.90
20732;DHT22;10527;52.124;5.196;2022-11-20T05:11:21;-1.80;99.90
20732;DHT22;10527;52.124;5.196;2022-11-20T05:13:49;-1.80;99.90
20732;DHT22;10527;52.124;5.196;2022-11-20T05:16:20;-1.80;99.90
20732;DHT22;10527;52.124;5.196;2022-11-20T05:18:50;-1.70;99.90
20732;DHT22;10527;52.124;5.196;2022-11-20T05:21:18;-1.70;99.90
20732;DHT22;10527;52.124;5.196;2022-11-20T05:23:45;-1.70;99.90
20732;DHT22;10527;52.124;5.196;2022-11-20T05:26:18;-1.70;99.90
20732;DHT22;10527;52.124;5.196;2022-11-20T05:28:48;-1.70;99.90
20732;DHT22;10527;52.124;5.196;2022-11-20T05:31:19;-1.60;99.90
20732;DHT22;10527;52.124;5.196;2022-11-20T05:33:54;-1.60;99.90
20732;DHT22;10527;52.124;5.196;2022-11-20T05:36:22;-1.60;99.90
20732;DHT22;10527;52.124;5.196;2022-11-20T05:38:49;-1.60;99.90
20732;DHT22;10527;52.124;5.196;2022-11-20T05:41:20;-1.70;99.90
20732;DHT22;10527;52.124;5.196;2022-11-20T05:43:48;-1.70;99.90
20732;DHT22;10527;52.124;5.196;2022-11-20T05:46:18;-1.70;99.90
20732;DHT22;10527;52.124;5.196;2022-11-20T05:48:56;-1.70;99.90
20732;DHT22;10527;52.124;5.196;2022-11-20T05:51:24;-1.70;99.90
20732;DHT22;10527;52.124;5.196;2022-11-20T05:53:52;-1.70;99.90
20732;DHT22;10527;52.124;5.196;2022-11-20T05:56:20;-1.70;99.90
20732;DHT22;10527;52.124;5.196;2022-11-20T05:58:48;-1.60;99.90
20732;DHT22;10527;52.124;5.196;2022-11-20T06:01:21;-1.70;99.90
20732;DHT22;10527;52.124;5.196;2022-11-20T06:03:51;-1.90;99.90
20732;DHT22;10527;52.124;5.196;2022-11-20T06:06:20;-1.80;99.90
20732;DHT22;10527;52.124;5.196;2022-11-20T06:08:48;-1.80;99.90
20732;DHT22;10527;52.124;5.196;2022-11-20T06:11:16;-1.90;99.90
20732;DHT22;10527;52.124;5.196;2022-11-20T06:13:46;-1.90;99.90
20732;DHT22;10527;52.124;5.196;2022-11-20T06:16:15;-1.80;99.90
20732;DHT22;10527;52.124;5.196;2022-11-20T06:18:44;-1.80;99.90
20732;DHT22;10527;52.124;5.196;2022-11-20T06:21:14;-1.90;99.90
20732;DHT22;10527;52.124;5.196;2022-11-20T06:23:46;-1.80;99.90
20732;DHT22;10527;52.124;5.196;2022-11-20T06:26:26;-1.80;99.90
20732;DHT22;10527;52.124;5.196;2022-11-20T06:28:54;-1.80;99.90
20732;DHT22;10527;52.124;5.196;2022-11-20T06:31:24;-1.80;99.90
20732;DHT22;10527;52.124;5.196;2022-11-20T06:33:52;-1.80;99.90
20732;DHT22;10527;52.124;5.196;2022-11-20T06:36:21;-1.80;99.90
20732;DHT22;10527;52.124;5.196;2022-11-20T06:38:49;-1.70;99.90
20732;DHT22;10527;52.124;5.196;2022-11-20T06:41:18;-1.70;99.90
20732;DHT22;10527;52.124;5.196;2022-11-20T06:43:47;-1.80;99.90
20732;DHT22;10527;52.124;5.196;2022-11-20T06:46:19;-1.80;99.90
20732;DHT22;10527;52.124;5.196;2022-11-20T06:48:47;-1.90;99.90
20732;DHT22;10527;52.124;5.196;2022-11-20T06:51:15;-1.90;99.90
20732;DHT22;10527;52.124;5.196;2022-11-20T06:53:41;-1.90;99.90
20732;DHT22;10527;52.124;5.196;2022-11-20T06:56:08;-1.90;99.90
20732;DHT22;10527;52.124;5.196;2022-11-20T06:58:36;-1.90;99.90
20732;DHT22;10527;52.124;5.196;2022-11-20T07:01:06;-1.90;99.90
20732;DHT22;10527;52.124;5.196;2022-11-20T07:03:37;-1.90;99.90
20732;DHT22;10527;52.124;5.196;2022-11-20T07:06:06;-1.90;99.90
20732;DHT22;10527;52.124;5.196;2022-11-20T07:08:34;-1.90;99.90
20732;DHT22;10527;52.124;5.196;2022-11-20T07:11:03;-1.90;99.90
20732;DHT22;10527;52.124;5.196;2022-11-20T07:13:32;-2.00;99.90
20732;DHT22;10527;52.124;5.196;2022-11-20T07:16:01;-2.00;99.90
20732;DHT22;10527;52.124;5.196;2022-11-20T07:18:29;-2.00;99.90
20732;DHT22;10527;52.124;5.196;2022-11-20T07:20:59;-1.90;99.90
20732;DHT22;10527;52.124;5.196;2022-11-20T07:23:26;-2.00;99.90
20732;DHT22;10527;52.124;5.196;2022-11-20T07:25:53;-1.90;99.90
20732;DHT22;10527;52.124;5.196;2022-11-20T07:28:20;-1.80;99.90
20732;DHT22;10527;52.124;5.196;2022-11-20T07:31:00;-1.80;99.90
20732;DHT22;10527;52.124;5.196;2022-11-20T07:33:27;-1.80;99.90
20732;DHT22;10527;52.124;5.196;2022-11-20T07:35:54;-1.80;99.90
20732;DHT22;10527;52.124;5.196;2022-11-20T07:38:21;-1.70;99.90
20732;DHT22;10527;52.124;5.196;2022-11-20T07:40:47;-1.70;99.90
20732;DHT22;10527;52.124;5.196;2022-11-20T07:43:15;-1.60;99.90
20732;DHT22;10527;52.124;5.196;2022-11-20T07:45:42;-1.60;99.90
20732;DHT22;10527;52.124;5.196;2022-11-20T07:48:08;-1.60;99.90
20732;DHT22;10527;52.124;5.196;2022-11-20T07:50:35;-1.50;99.90
20732;DHT22;10527;52.124;5.196;2022-11-20T07:53:04;-1.50;99.90
20732;DHT22;10527;52.124;5.196;2022-11-20T07:55:32;-1.40;99.90
20732;DHT22;10527;52.124;5.196;2022-11-20T07:57:59;-1.40;99.90
20732;DHT22;10527;52.124;5.196;2022-11-20T08:00:26;-1.30;99.90
20732;DHT22;10527;52.124;5.196;2022-11-20T08:02:54;-1.30;99.90
20732;DHT22;10527;52.124;5.196;2022-11-20T08:05:20;-1.20;99.90
20732;DHT22;10527;52.124;5.196;2022-11-20T08:07:47;-1.20;99.90
20732;DHT22;10527;52.124;5.196;2022-11-20T08:10:15;-1.10;99.90
20732;DHT22;10527;52.124;5.196;2022-11-20T08:12:47;-1.00;99.90
20732;DHT22;10527;52.124;5.196;2022-11-20T08:15:34;-0.90;99.90
20732;DHT22;10527;52.124;5.196;2022-11-20T08:18:10;-0.90;99.90
20732;DHT22;10527;52.124;5.196;2022-11-20T08:21:04;-0.80;99.90
20732;DHT22;10527;52.124;5.196;2022-11-20T08:23:33;-0.80;99.90
20732;DHT22;10527;52.124;5.196;2022-11-20T08:26:00;-0.70;99.90
20732;DHT22;10527;52.124;5.196;2022-11-20T08:28:27;-0.60;99.90
20732;DHT22;10527;52.124;5.196;2022-11-20T08:30:59;-0.60;99.90
20732;DHT22;10527;52.124;5.196;2022-11-20T08:33:29;-0.50;99.90
20732;DHT22;10527;52.124;5.196;2022-11-20T08:36:00;-0.50;99.90
20732;DHT22;10527;52.124;5.196;2022-11-20T08:38:31;-0.50;99.90
20732;DHT22;10527;52.124;5.196;2022-11-20T08:41:03;-0.50;99.90
20732;DHT22;10527;52.124;5.196;2022-11-20T08:43:50;-0.40;99.90
20732;DHT22;10527;52.124;5.196;2022-11-20T08:46:18;-0.40;99.90
20732;DHT22;10527;52.124;5.196;2022-11-20T08:48:45;-0.40;99.90
20732;DHT22;10527;52.124;5.196;2022-11-20T08:51:12;-0.30;99.90
20732;DHT22;10527;52.124;5.196;2022-11-20T08:53:40;-0.30;99.90
20732;DHT22;10527;52.124;5.196;2022-11-20T08:56:08;-0.20;99.90
20732;DHT22;10527;52.124;5.196;2022-11-20T08:58:36;-0.20;99.90
20732;DHT22;10527;52.124;5.196;2022-11-20T09:01:33;-0.20;99.90
20732;DHT22;10527;52.124;5.196;2022-11-20T09:03:59;-0.10;99.90
20732;DHT22;10527;52.124;5.196;2022-11-20T09:06:26;-0.10;99.90
20732;DHT22;10527;52.124;5.196;2022-11-20T09:08:54;0.00;99.90
20732;DHT22;10527;52.124;5.196;2022-11-20T09:11:21;0.00;99.90
20732;DHT22;10527;52.124;5.196;2022-11-20T09:13:48;0.20;99.90
20732;DHT22;10527;52.124;5.196;2022-11-20T09:16:15;0.20;99.90
20732;DHT22;10527;52.124;5.196;2022-11-20T09:18:42;0.20;99.90
20732;DHT22;10527;52.124;5.196;2022-11-20T09:21:11;0.30;99.90
20732;DHT22;10527;52.124;5.196;2022-11-20T09:23:40;0.20;99.90
20732;DHT22;10527;52.124;5.196;2022-11-20T09:26:12;0.20;99.90
20732;DHT22;10527;52.124;5.196;2022-11-20T09:28:40;0.30;99.90
20732;DHT22;10527;52.124;5.196;2022-11-20T09:31:22;0.30;99.90
20732;DHT22;10527;52.124;5.196;2022-11-20T09:33:52;0.40;99.90
20732;DHT22;10527;52.124;5.196;2022-11-20T09:36:19;0.40;99.90
20732;DHT22;10527;52.124;5.196;2022-11-20T09:38:46;0.50;99.90
20732;DHT22;10527;52.124;5.196;2022-11-20T09:53:37;0.70;99.90
20732;DHT22;10527;52.124;5.196;2022-11-20T09:56:14;0.60;99.90
20732;DHT22;10527;52.124;5.196;2022-11-20T09:58:56;0.80;99.90
20732;DHT22;10527;52.124;5.196;2022-11-20T10:01:31;0.80;99.90
20732;DHT22;10527;52.124;5.196;2022-11-20T10:04:02;0.80;99.90
20732;DHT22;10527;52.124;5.196;2022-11-20T10:06:34;0.90;99.90
20732;DHT22;10527;52.124;5.196;2022-11-20T10:12:06;1.00;99.90
20732;DHT22;10527;52.124;5.196;2022-11-20T10:21:04;1.10;99.90
20732;DHT22;10527;52.124;5.196;2022-11-20T10:30:12;1.20;99.90
20732;DHT22;10527;52.124;5.196;2022-11-20T10:32:43;1.10;99.90
20732;DHT22;10527;52.124;5.196;2022-11-20T10:35:22;1.10;99.90
20732;DHT22;10527;52.124;5.196;2022-11-20T10:37:59;1.20;99.90
20732;DHT22;10527;52.124;5.196;2022-11-20T10:40:33;1.30;99.90
20732;DHT22;10527;52.124;5.196;2022-11-20T10:43:21;1.30;99.90
20732;DHT22;10527;52.124;5.196;2022-11-20T10:45:58;1.40;99.90
20732;DHT22;10527;52.124;5.196;2022-11-20T10:48:31;1.40;99.90
20732;DHT22;10527;52.124;5.196;2022-11-20T10:51:15;1.40;99.90
20732;DHT22;10527;52.124;5.196;2022-11-20T10:57:17;1.40;99.90
20732;DHT22;10527;52.124;5.196;2022-11-20T11:00:09;1.40;99.90
20732;DHT22;10527;52.124;5.196;2022-11-20T11:02:53;1.60;99.90
20732;DHT22;10527;52.124;5.196;2022-11-20T11:05:29;1.70;99.90
20732;DHT22;10527;52.124;5.196;2022-11-20T11:08:04;1.70;99.90
20732;DHT22;10527;52.124;5.196;2022-11-20T11:10:44;1.80;99.90
20732;DHT22;10527;52.124;5.196;2022-11-20T11:13:24;1.80;99.90
20732;DHT22;10527;52.124;5.196;2022-11-20T11:15:54;1.80;99.90
20732;DHT22;10527;52.124;5.196;2022-11-20T11:18:25;1.80;99.90
20732;DHT22;10527;52.124;5.196;2022-11-20T11:20:55;1.90;99.90
20732;DHT22;10527;52.124;5.196;2022-11-20T11:26:06;2.00;99.90
20732;DHT22;10527;52.124;5.196;2022-11-20T11:31:31;2.00;99.90
20732;DHT22;10527;52.124;5.196;2022-11-20T11:34:06;2.00;99.90
20732;DHT22;10527;52.124;5.196;2022-11-20T11:36:55;2.00;99.90
20732;DHT22;10527;52.124;5.196;2022-11-20T11:39:25;2.00;99.90
20732;DHT22;10527;52.124;5.196;2022-11-20T11:41:53;2.00;99.90
20732;DHT22;10527;52.124;5.196;2022-11-20T11:44:32;2.00;99.90
20732;DHT22;10527;52.124;5.196;2022-11-20T11:52:55;2.10;99.90
20732;DHT22;10527;52.124;5.196;2022-11-20T11:55:56;2.20;99.90
20732;DHT22;10527;52.124;5.196;2022-11-20T11:58:41;2.00;99.90
20732;DHT22;10527;52.124;5.196;2022-11-20T12:01:35;2.10;99.90
20732;DHT22;10527;52.124;5.196;2022-11-20T12:04:43;2.10;99.90
20732;DHT22;10527;52.124;5.196;2022-11-20T12:07:22;2.20;99.90
20732;DHT22;10527;52.124;5.196;2022-11-20T12:16:01;2.20;99.90
20732;DHT22;10527;52.124;5.196;2022-11-20T12:18:30;2.30;99.90
20732;DHT22;10527;52.124;5.196;2022-11-20T12:21:12;2.30;99.90
20732;DHT22;10527;52.124;5.196;2022-11-20T12:44:53;2.40;99.90
20732;DHT22;10527;52.124;5.196;2022-11-20T12:47:51;2.40;99.90
20732;DHT22;10527;52.124;5.196;2022-11-20T12:57:15;2.40;99.90
20732;DHT22;10527;52.124;5.196;2022-11-20T13:05:43;2.60;99.90
20732;DHT22;10527;52.124;5.196;2022-11-20T13:08:35;2.60;99.90
20732;DHT22;10527;52.124;5.196;2022-11-20T13:20:12;2.70;99.90
20732;DHT22;10527;52.124;5.196;2022-11-20T13:22:59;2.70;99.90
20732;DHT22;10527;52.124;5.196;2022-11-20T13:25:36;2.70;99.90
20732;DHT22;10527;52.124;5.196;2022-11-20T13:28:26;2.70;99.90
20732;DHT22;10527;52.124;5.196;2022-11-20T13:30:55;2.80;99.90
20732;DHT22;10527;52.124;5.196;2022-11-20T13:33:35;2.80;99.90
20732;DHT22;10527;52.124;5.196;2022-11-20T13:36:24;2.80;99.90
20732;DHT22;10527;52.124;5.196;2022-11-20T13:38:55;2.70;99.90
20732;DHT22;10527;52.124;5.196;2022-11-20T13:41:35;2.70;99.90
20732;DHT22;10527;52.124;5.196;2022-11-20T13:44:23;2.70;99.90
20732;DHT22;10527;52.124;5.196;2022-11-20T13:46:57;2.70;99.90
20732;DHT22;10527;52.124;5.196;2022-11-20T13:49:27;2.80;99.90
20732;DHT22;10527;52.124;5.196;2022-11-20T13:52:29;2.80;99.90
20732;DHT22;10527;52.124;5.196;2022-11-20T13:58:24;2.80;99.90
20732;DHT22;10527;52.124;5.196;2022-11-20T14:01:16;2.80;99.90
20732;DHT22;10527;52.124;5.196;2022-11-20T14:03:46;2.80;99.90
20732;DHT22;10527;52.124;5.196;2022-11-20T14:06:34;2.80;99.90
20732;DHT22;10527;52.124;5.196;2022-11-20T14:09:36;2.90;99.90
20732;DHT22;10527;52.124;5.196;2022-11-20T14:12:03;2.90;99.90
20732;DHT22;10527;52.124;5.196;2022-11-20T14:14:51;2.90;99.90
20732;DHT22;10527;52.124;5.196;2022-11-20T14:17:32;2.80;99.90
20732;DHT22;10527;52.124;5.196;2022-11-20T14:20:04;2.80;99.90
20732;DHT22;10527;52.124;5.196;2022-11-20T14:22:32;2.80;99.90
20732;DHT22;10527;52.124;5.196;2022-11-20T14:27:41;2.90;99.90
20732;DHT22;10527;52.124;5.196;2022-11-20T14:30:15;3.00;99.90
20732;DHT22;10527;52.124;5.196;2022-11-20T14:32:44;2.90;99.90
20732;DHT22;10527;52.124;5.196;2022-11-20T14:37:52;2.90;99.90
20732;DHT22;10527;52.124;5.196;2022-11-20T14:40:31;2.90;99.90
20732;DHT22;10527;52.124;5.196;2022-11-20T14:43:02;2.90;99.90
20732;DHT22;10527;52.124;5.196;2022-11-20T14:46:05;3.00;99.90
20732;DHT22;10527;52.124;5.196;2022-11-20T14:48:41;3.00;99.90
20732;DHT22;10527;52.124;5.196;2022-11-20T14:51:40;2.90;99.90
20732;DHT22;10527;52.124;5.196;2022-11-20T14:54:16;3.00;99.90
20732;DHT22;10527;52.124;5.196;2022-11-20T14:57:03;3.00;99.90
20732;DHT22;10527;52.124;5.196;2022-11-20T14:59:32;2.90;99.90
20732;DHT22;10527;52.124;5.196;2022-11-20T15:02:11;3.00;99.90
20732;DHT22;10527;52.124;5.196;2022-11-20T15:04:49;2.90;99.90
20732;DHT22;10527;52.124;5.196;2022-11-20T15:07:28;3.00;99.90
20732;DHT22;10527;52.124;5.196;2022-11-20T15:10:01;3.00;99.90
20732;DHT22;10527;52.124;5.196;2022-11-20T15:12:34;3.10;99.90
20732;DHT22;10527;52.124;5.196;2022-11-20T15:15:04;3.00;99.90
20732;DHT22;10527;52.124;5.196;2022-11-20T15:17:34;3.00;99.90
20732;DHT22;10527;52.124;5.196;2022-11-20T15:20:14;3.00;99.90
20732;DHT22;10527;52.124;5.196;2022-11-20T15:22:42;3.00;99.90
20732;DHT22;10527;52.124;5.196;2022-11-20T15:25:15;3.00;99.90
20732;DHT22;10527;52.124;5.196;2022-11-20T15:27:44;3.00;99.90
20732;DHT22;10527;52.124;5.196;2022-11-20T15:30:17;3.00;99.90
20732;DHT22;10527;52.124;5.196;2022-11-20T15:32:47;3.00;99.90
20732;DHT22;10527;52.124;5.196;2022-11-20T15:35:15;2.90;99.90
20732;DHT22;10527;52.124;5.196;2022-11-20T15:37:43;2.90;99.90
20732;DHT22;10527;52.124;5.196;2022-11-20T15:40:10;3.00;99.90
20732;DHT22;10527;52.124;5.196;2022-11-20T15:42:37;3.00;99.90
20732;DHT22;10527;52.124;5.196;2022-11-20T15:45:07;2.90;99.90
20732;DHT22;10527;52.124;5.196;2022-11-20T15:47:35;3.00;99.90
20732;DHT22;10527;52.124;5.196;2022-11-20T15:50:02;3.00;99.90
20732;DHT22;10527;52.124;5.196;2022-11-20T15:52:29;3.00;99.90
20732;DHT22;10527;52.124;5.196;2022-11-20T15:55:10;2.90;99.90
20732;DHT22;10527;52.124;5.196;2022-11-20T15:57:37;2.90;99.90
20732;DHT22;10527;52.124;5.196;2022-11-20T16:00:04;2.90;99.90
20732;DHT22;10527;52.124;5.196;2022-11-20T16:02:34;3.00;99.90
20732;DHT22;10527;52.124;5.196;2022-11-20T16:05:01;3.00;99.90
20732;DHT22;10527;52.124;5.196;2022-11-20T16:07:27;3.00;99.90
20732;DHT22;10527;52.124;5.196;2022-11-20T16:09:54;3.00;99.90
20732;DHT22;10527;52.124;5.196;2022-11-20T16:12:23;3.10;99.90
20732;DHT22;10527;52.124;5.196;2022-11-20T16:15:11;3.00;99.90
20732;DHT22;10527;52.124;5.196;2022-11-20T16:17:56;3.10;99.90
20732;DHT22;10527;52.124;5.196;2022-11-20T16:20:23;3.10;99.90
20732;DHT22;10527;52.124;5.196;2022-11-20T16:22:50;3.10;99.90
20732;DHT22;10527;52.124;5.196;2022-11-20T16:25:16;3.10;99.90
20732;DHT22;10527;52.124;5.196;2022-11-20T16:27:43;3.10;99.90
20732;DHT22;10527;52.124;5.196;2022-11-20T16:30:10;3.10;99.90
20732;DHT22;10527;52.124;5.196;2022-11-20T16:32:37;3.10;99.90
20732;DHT22;10527;52.124;5.196;2022-11-20T16:35:05;3.20;99.90
20732;DHT22;10527;52.124;5.196;2022-11-20T16:37:33;3.20;99.90
20732;DHT22;10527;52.124;5.196;2022-11-20T16:40:00;3.30;99.90
20732;DHT22;10527;52.124;5.196;2022-11-20T16:42:27;3.30;99.90
20732;DHT22;10527;52.124;5.196;2022-11-20T16:44:54;3.30;99.90
20732;DHT22;10527;52.124;5.196;2022-11-20T16:47:20;3.30;99.90
20732;DHT22;10527;52.124;5.196;2022-11-20T16:49:47;3.30;99.90
20732;DHT22;10527;52.124;5.196;2022-11-20T16:52:14;3.30;99.90
20732;DHT22;10527;52.124;5.196;2022-11-20T16:54:41;3.30;99.90
20732;DHT22;10527;52.124;5.196;2022-11-20T16:57:07;3.30;99.90
20732;DHT22;10527;52.124;5.196;2022-11-20T16:59:34;3.30;99.90
20732;DHT22;10527;52.124;5.196;2022-11-20T17:02:01;3.30;99.90
20732;DHT22;10527;52.124;5.196;2022-11-20T17:04:28;3.40;99.90
20732;DHT22;10527;52.124;5.196;2022-11-20T17:06:55;3.30;99.90
20732;DHT22;10527;52.124;5.196;2022-11-20T17:09:21;3.30;99.90
20732;DHT22;10527;52.124;5.196;2022-11-20T17:11:48;3.30;99.90
20732;DHT22;10527;52.124;5.196;2022-11-20T17:14:19;3.40;99.90
20732;DHT22;10527;52.124;5.196;2022-11-20T17:16:46;3.40;99.90
20732;DHT22;10527;52.124;5.196;2022-11-20T17:19:14;3.40;99.90
20732;DHT22;10527;52.124;5.196;2022-11-20T17:21:41;3.40;99.90
20732;DHT22;10527;52.124;5.196;2022-11-20T17:24:10;3.40;99.90
20732;DHT22;10527;52.124;5.196;2022-11-20T17:26:42;3.40;99.90
20732;DHT22;10527;52.124;5.196;2022-11-20T17:29:13;3.50;99.90
20732;DHT22;10527;52.124;5.196;2022-11-20T17:31:42;3.50;99.90
20732;DHT22;10527;52.124;5.196;2022-11-20T17:34:13;3.50;99.90
20732;DHT22;10527;52.124;5.196;2022-11-20T17:36:41;3.50;99.90
20732;DHT22;10527;52.124;5.196;2022-11-20T17:39:13;3.50;99.90
20732;DHT22;10527;52.124;5.196;2022-11-20T17:41:40;3.50;99.90
20732;DHT22;10527;52.124;5.196;2022-11-20T17:44:11;3.50;99.90
20732;DHT22;10527;52.124;5.196;2022-11-20T17:46:38;3.50;99.90
20732;DHT22;10527;52.124;5.196;2022-11-20T17:49:05;3.50;99.90
20732;DHT22;10527;52.124;5.196;2022-11-20T17:51:33;3.50;99.90
20732;DHT22;10527;52.124;5.196;2022-11-20T17:54:05;3.60;99.90